Arklow Spray — C6VK8 — position and weather

sailwx.info

Track history (hours):
 
Tides and Currents Weather Stations Pressure Air Temp Water Temp Dewpoint Dewpoint Depression Visibility Wind Speed Wind Dir Waves Ship Positions

Arklow Spray

Last reported at 2015-Mar-28 14:30 UTC. Time now 2015-Mar-30 05:55 UTC.
Position N 50°34' E 000°20'.

Length 90 m; draft 4.9 m.

Type: Cargo ship. MMSI: 309914000.

Date/timePositionNaut miles runAvg speedWind from/ knotsBaromVisibWave heightAir tempDewpointWater temp
2015-Mar-28 14:30N 50°34' E 000°20'9 7.4
2015-Mar-28 13:13N 50°36' E 000°34'6 9.0
2015-Mar-28 12:33N 50°40' E 000°41'1010.0
2015-Mar-28 11:33N 50°46' E 000°54'3110.3
2015-Mar-28 08:32N 51°06' E 001°31'9 8.8
2015-Mar-28 07:33N 51°12' E 001°41'8 8.3
2015-Mar-28 06:33N 51°19' E 001°48'9 8.9
2015-Mar-28 05:33N 51°27' E 001°56'11 9.9
2015-Mar-28 04:25N 51°35' E 002°09'1410.8
2015-Mar-28 03:09N 51°45' E 002°24'82 9.5
2015-Mar-27 18:31N 52°31' E 004°14'9 9.6
2015-Mar-27 17:33N 52°29' E 004°28'5 4.6
2015-Mar-27 16:29N 52°28' E 004°36'0 0.0
2015-Mar-27 15:29N 52°28' E 004°36'0 0.0
2015-Mar-27 14:29N 52°28' E 004°36'0 0.0
2015-Mar-27 13:28N 52°28' E 004°36'0 0.0
2015-Mar-27 12:10N 52°28' E 004°36'0 0.0
2015-Mar-27 11:28N 52°28' E 004°36'0 0.0
2015-Mar-27 10:25N 52°28' E 004°36'0 0.0
2015-Mar-27 08:28N 52°28' E 004°36'0 0.0
2015-Mar-27 07:04N 52°28' E 004°36'0 0.0
2015-Mar-27 06:19N 52°28' E 004°36'0 0.0
2015-Mar-27 05:31N 52°28' E 004°36'0 0.0
2015-Mar-27 04:31N 52°28' E 004°36'0 0.0
2015-Mar-27 03:28N 52°28' E 004°36'0 0.0
2015-Mar-27 02:28N 52°28' E 004°36'0 0.0
2015-Mar-27 01:22N 52°28' E 004°36'0 0.0
2015-Mar-27 00:31N 52°28' E 004°36'0 0.0
2015-Mar-26 23:28N 52°28' E 004°36'0 0.0
2015-Mar-26 22:31N 52°28' E 004°36'0 0.0
2015-Mar-26 21:31N 52°28' E 004°36'0 0.0
2015-Mar-26 20:28N 52°28' E 004°36'0 0.0
2015-Mar-26 19:31N 52°28' E 004°36'0 0.0
2015-Mar-26 18:31N 52°28' E 004°36'0 0.0
2015-Mar-26 17:31N 52°28' E 004°36'0 0.0
2015-Mar-26 16:22N 52°28' E 004°36'0 0.0
2015-Mar-26 15:28N 52°28' E 004°36'0 0.0
2015-Mar-26 14:19N 52°28' E 004°36'0 0.0
2015-Mar-26 13:19N 52°28' E 004°36'0 0.0
2015-Mar-26 12:19N 52°28' E 004°36'0 0.0
2015-Mar-26 11:31N 52°28' E 004°36'0 0.0
2015-Mar-26 10:28N 52°28' E 004°36'0 0.0
2015-Mar-26 09:25N 52°28' E 004°36'0 0.0
2015-Mar-26 08:31N 52°28' E 004°36'0 0.0
2015-Mar-26 07:28N 52°28' E 004°36'0 0.1
2015-Mar-26 06:31N 52°28' E 004°36'0 0.0
2015-Mar-26 05:28N 52°28' E 004°36'0 0.0
2015-Mar-26 04:31N 52°28' E 004°36'0 0.0
2015-Mar-26 03:28N 52°28' E 004°36'0 0.0
2015-Mar-26 02:34N 52°28' E 004°36'0 0.0
2015-Mar-26 01:33N 52°28' E 004°36'0 0.0
2015-Mar-26 00:33N 52°28' E 004°36'0 0.0
2015-Mar-25 23:33N 52°28' E 004°36'0 0.0
2015-Mar-25 22:27N 52°28' E 004°36'0 0.0
2015-Mar-25 21:33N 52°28' E 004°36'0 0.0
2015-Mar-25 20:33N 52°28' E 004°36'0 0.0
2015-Mar-25 19:33N 52°28' E 004°36'0 0.1
2015-Mar-25 18:33N 52°28' E 004°36'7 6.9
2015-Mar-25 17:33N 52°29' E 004°25'9 9.4
2015-Mar-25 16:33N 52°29' E 004°09'9 8.3
2015-Mar-25 15:31N 52°27' E 003°56'7711.1
2015-Mar-25 08:33N 52°48' E 001°53'1110.9
2015-Mar-25 07:34N 52°54' E 001°38'1010.0
2015-Mar-25 06:33N 53°01' E 001°28'9 8.8
2015-Mar-25 05:33N 53°04' E 001°14'37 9.1
2015-Mar-25 01:30N 53°27' E 000°25'9 9.7
2015-Mar-25 00:34N 53°33' E 000°13'1514.4
2015-Mar-24 23:33N 53°38' W 000°10'1211.9
2015-Mar-24 22:33N 53°42' W 000°29'2 0.0
2015-Mar-23 07:04N 53°41' W 000°31'4 7.8
2015-Mar-23 06:33N 53°42' W 000°25'8 7.5
2015-Mar-23 05:34N 53°40' W 000°13'10 9.6
2015-Mar-23 04:33N 53°35' E 000°02'8 7.8
2015-Mar-23 03:33N 53°33' E 000°14'1010.0
2015-Mar-23 02:32N 53°40' E 000°27'7 3.0
2015-Mar-23 00:14N 53°45' E 000°35'1 2.0
2015-Mar-22 23:33N 53°46' E 000°35'2 2.2
2015-Mar-22 22:33N 53°49' E 000°35'3 2.8
2015-Mar-22 21:33N 53°51' E 000°33'4 4.3
2015-Mar-22 20:33N 53°54' E 000°28'9 9.3
2015-Mar-22 19:34N 54°01' E 000°18'1211.6
2015-Mar-22 18:34N 54°11' E 000°06'1212.2
2015-Mar-22 17:33N 54°21' W 000°05'1212.4
2015-Mar-22 16:33N 54°31' W 000°18'4117.7
2015-Mar-22 14:14N 55°04' W 000°60'39 9.5
2015-Mar-22 10:06N 55°40' W 001°28'111 9.6
2015-Mar-21 22:33N 57°31' W 001°35'10 9.6
2015-Mar-21 21:29N 57°41' W 001°40'9 9.6
2015-Mar-21 20:33N 57°46' W 001°54'7 0.1
2015-Mar-19 21:15N 57°48' W 002°06'710.5
2015-Mar-19 20:33N 57°46' W 001°52'1111.2
2015-Mar-19 19:33N 57°38' W 001°39'1312.6
2015-Mar-19 18:30N 57°24' W 001°37'1813.4
2015-Mar-19 17:08N 57°07' W 001°47'10510.9
2015-Mar-19 07:30N 55°23' W 001°16'1112.2
2015-Mar-19 06:33N 55°13' W 001°08'1211.8
2015-Mar-19 05:33N 55°03' W 000°57'1111.1
2015-Mar-19 04:33N 54°54' W 000°45'1110.5
2015-Mar-19 03:33N 54°45' W 000°35'10 9.9
2015-Mar-19 02:34N 54°37' W 000°26'10 9.6
2015-Mar-19 01:33N 54°29' W 000°17'10 9.8
2015-Mar-19 00:33N 54°21' W 000°08'1010.5
2015-Mar-18 23:33N 54°13' E 000°05'1111.4
2015-Mar-18 22:34N 54°05' E 000°18'2510.2
2015-Mar-18 20:07N 53°40' E 000°26'712.2
2015-Mar-18 19:33N 53°35' E 000°18'1212.0
2015-Mar-18 18:33N 53°36' W 000°02'1312.8
2015-Mar-18 17:33N 53°44' W 000°17'0 0.4
2015-Mar-18 16:33N 53°45' W 000°17'0 0.0
2015-Mar-18 15:30N 53°45' W 000°17'0 0.0
2015-Mar-18 14:33N 53°45' W 000°17'  
Track history (hours):
 
Tides and Currents Weather Stations Pressure Air Temp Water Temp Dewpoint Dewpoint Depression Visibility Wind Speed Wind Dir Waves Ship Positions

Arklow Spray

Last reported at 2015-Mar-28 14:30 UTC. Time now 2015-Mar-30 05:55 UTC.
Position N 50°34' E 000°20'.

Length 90 m; draft 4.9 m.

Type: Cargo ship. MMSI: 309914000.

Date/timePositionNaut miles runAvg speedWind from/ knotsBaromVisibWave heightAir tempDewpointWater temp
2015-Mar-28 14:30N 50°34' E 000°20'9 7.4
2015-Mar-28 13:13N 50°36' E 000°34'6 9.0
2015-Mar-28 12:33N 50°40' E 000°41'1010.0
2015-Mar-28 11:33N 50°46' E 000°54'3110.3
2015-Mar-28 08:32N 51°06' E 001°31'9 8.8
2015-Mar-28 07:33N 51°12' E 001°41'8 8.3
2015-Mar-28 06:33N 51°19' E 001°48'9 8.9
2015-Mar-28 05:33N 51°27' E 001°56'11 9.9
2015-Mar-28 04:25N 51°35' E 002°09'1410.8
2015-Mar-28 03:09N 51°45' E 002°24'82 9.5
2015-Mar-27 18:31N 52°31' E 004°14'9 9.6
2015-Mar-27 17:33N 52°29' E 004°28'5 4.6
2015-Mar-27 16:29N 52°28' E 004°36'0 0.0
2015-Mar-27 15:29N 52°28' E 004°36'0 0.0
2015-Mar-27 14:29N 52°28' E 004°36'0 0.0
2015-Mar-27 13:28N 52°28' E 004°36'0 0.0
2015-Mar-27 12:10N 52°28' E 004°36'0 0.0
2015-Mar-27 11:28N 52°28' E 004°36'0 0.0
2015-Mar-27 10:25N 52°28' E 004°36'0 0.0
2015-Mar-27 08:28N 52°28' E 004°36'0 0.0
2015-Mar-27 07:04N 52°28' E 004°36'0 0.0
2015-Mar-27 06:19N 52°28' E 004°36'0 0.0
2015-Mar-27 05:31N 52°28' E 004°36'0 0.0
2015-Mar-27 04:31N 52°28' E 004°36'0 0.0
2015-Mar-27 03:28N 52°28' E 004°36'0 0.0
2015-Mar-27 02:28N 52°28' E 004°36'0 0.0
2015-Mar-27 01:22N 52°28' E 004°36'0 0.0
2015-Mar-27 00:31N 52°28' E 004°36'0 0.0
2015-Mar-26 23:28N 52°28' E 004°36'0 0.0
2015-Mar-26 22:31N 52°28' E 004°36'0 0.0
2015-Mar-26 21:31N 52°28' E 004°36'0 0.0
2015-Mar-26 20:28N 52°28' E 004°36'0 0.0
2015-Mar-26 19:31N 52°28' E 004°36'0 0.0
2015-Mar-26 18:31N 52°28' E 004°36'0 0.0
2015-Mar-26 17:31N 52°28' E 004°36'0 0.0
2015-Mar-26 16:22N 52°28' E 004°36'0 0.0
2015-Mar-26 15:28N 52°28' E 004°36'0 0.0
2015-Mar-26 14:19N 52°28' E 004°36'0 0.0
2015-Mar-26 13:19N 52°28' E 004°36'0 0.0
2015-Mar-26 12:19N 52°28' E 004°36'0 0.0
2015-Mar-26 11:31N 52°28' E 004°36'0 0.0
2015-Mar-26 10:28N 52°28' E 004°36'0 0.0
2015-Mar-26 09:25N 52°28' E 004°36'0 0.0
2015-Mar-26 08:31N 52°28' E 004°36'0 0.0
2015-Mar-26 07:28N 52°28' E 004°36'0 0.1
2015-Mar-26 06:31N 52°28' E 004°36'0 0.0
2015-Mar-26 05:28N 52°28' E 004°36'0 0.0
2015-Mar-26 04:31N 52°28' E 004°36'0 0.0
2015-Mar-26 03:28N 52°28' E 004°36'0 0.0
2015-Mar-26 02:34N 52°28' E 004°36'0 0.0
2015-Mar-26 01:33N 52°28' E 004°36'0 0.0
2015-Mar-26 00:33N 52°28' E 004°36'0 0.0
2015-Mar-25 23:33N 52°28' E 004°36'0 0.0
2015-Mar-25 22:27N 52°28' E 004°36'0 0.0
2015-Mar-25 21:33N 52°28' E 004°36'0 0.0
2015-Mar-25 20:33N 52°28' E 004°36'0 0.0
2015-Mar-25 19:33N 52°28' E 004°36'0 0.1
2015-Mar-25 18:33N 52°28' E 004°36'7 6.9
2015-Mar-25 17:33N 52°29' E 004°25'9 9.4
2015-Mar-25 16:33N 52°29' E 004°09'9 8.3
2015-Mar-25 15:31N 52°27' E 003°56'7711.1
2015-Mar-25 08:33N 52°48' E 001°53'1110.9
2015-Mar-25 07:34N 52°54' E 001°38'1010.0
2015-Mar-25 06:33N 53°01' E 001°28'9 8.8
2015-Mar-25 05:33N 53°04' E 001°14'37 9.1
2015-Mar-25 01:30N 53°27' E 000°25'9 9.7
2015-Mar-25 00:34N 53°33' E 000°13'1514.4
2015-Mar-24 23:33N 53°38' W 000°10'1211.9
2015-Mar-24 22:33N 53°42' W 000°29'2 0.0
2015-Mar-23 07:04N 53°41' W 000°31'4 7.8
2015-Mar-23 06:33N 53°42' W 000°25'8 7.5
2015-Mar-23 05:34N 53°40' W 000°13'10 9.6
2015-Mar-23 04:33N 53°35' E 000°02'8 7.8
2015-Mar-23 03:33N 53°33' E 000°14'1010.0
2015-Mar-23 02:32N 53°40' E 000°27'7 3.0
2015-Mar-23 00:14N 53°45' E 000°35'1 2.0
2015-Mar-22 23:33N 53°46' E 000°35'2 2.2
2015-Mar-22 22:33N 53°49' E 000°35'3 2.8
2015-Mar-22 21:33N 53°51' E 000°33'4 4.3
2015-Mar-22 20:33N 53°54' E 000°28'9 9.3
2015-Mar-22 19:34N 54°01' E 000°18'1211.6
2015-Mar-22 18:34N 54°11' E 000°06'1212.2
2015-Mar-22 17:33N 54°21' W 000°05'1212.4
2015-Mar-22 16:33N 54°31' W 000°18'4117.7
2015-Mar-22 14:14N 55°04' W 000°60'39 9.5
2015-Mar-22 10:06N 55°40' W 001°28'111 9.6
2015-Mar-21 22:33N 57°31' W 001°35'10 9.6
2015-Mar-21 21:29N 57°41' W 001°40'9 9.6
2015-Mar-21 20:33N 57°46' W 001°54'7 0.1
2015-Mar-19 21:15N 57°48' W 002°06'710.5
2015-Mar-19 20:33N 57°46' W 001°52'1111.2
2015-Mar-19 19:33N 57°38' W 001°39'1312.6
2015-Mar-19 18:30N 57°24' W 001°37'1813.4
2015-Mar-19 17:08N 57°07' W 001°47'10510.9
2015-Mar-19 07:30N 55°23' W 001°16'1112.2
2015-Mar-19 06:33N 55°13' W 001°08'1211.8
2015-Mar-19 05:33N 55°03' W 000°57'1111.1
2015-Mar-19 04:33N 54°54' W 000°45'1110.5
2015-Mar-19 03:33N 54°45' W 000°35'10 9.9
2015-Mar-19 02:34N 54°37' W 000°26'10 9.6
2015-Mar-19 01:33N 54°29' W 000°17'10 9.8
2015-Mar-19 00:33N 54°21' W 000°08'1010.5
2015-Mar-18 23:33N 54°13' E 000°05'1111.4
2015-Mar-18 22:34N 54°05' E 000°18'2510.2
2015-Mar-18 20:07N 53°40' E 000°26'712.2
2015-Mar-18 19:33N 53°35' E 000°18'1212.0
2015-Mar-18 18:33N 53°36' W 000°02'1312.8
2015-Mar-18 17:33N 53°44' W 000°17'0 0.4
2015-Mar-18 16:33N 53°45' W 000°17'0 0.0
2015-Mar-18 15:30N 53°45' W 000°17'0 0.0
2015-Mar-18 14:33N 53°45' W 000°17'  

Dump ship's entire track history